createdAt,value
2023-05-08T04:13:21.978Z,100866.84
2023-05-08T04:16:35.618Z,100861.31
2023-05-08T04:19:51.793Z,100866.34
2023-05-08T04:23:00.288Z,100874.94
2023-05-08T04:26:09.899Z,100871.84
2023-05-08T04:29:16.983Z,100876.91
2023-05-08T04:32:27.072Z,100886.62
2023-05-08T04:35:36.600Z,100893.59
2023-05-08T04:38:43.479Z,100899.91
2023-05-08T04:41:53.291Z,100894.53
2023-05-08T04:45:00.705Z,100903.50
2023-05-08T04:48:08.503Z,100907.41
2023-05-08T04:51:15.623Z,100910.72
2023-05-08T04:54:21.950Z,100918.13
2023-05-08T04:57:31.035Z,100926.09
2023-05-08T05:00:39.963Z,100915.22
2023-05-08T05:03:47.374Z,100929.25
2023-05-08T05:06:54.259Z,100932.53
2023-05-08T05:10:03.422Z,100929.81
2023-05-08T05:13:11.413Z,100926.94
2023-05-08T05:16:20.381Z,100937.53
2023-05-08T05:19:30.367Z,100929.63
2023-05-08T05:22:39.049Z,100943.81
2023-05-08T05:25:48.641Z,100933.97
2023-05-08T05:28:55.734Z,100943.62
2023-05-08T05:32:03.582Z,100949.81
2023-05-08T05:35:27.559Z,100955.28
2023-05-08T05:38:35.917Z,100948.28
2023-05-08T05:41:45.600Z,100946.13
2023-05-08T05:44:52.717Z,100962.09
2023-05-08T05:47:57.134Z,100963.31
2023-05-08T05:51:04.050Z,100963.50
2023-05-08T05:54:09.346Z,100954.53
2023-05-08T05:57:18.025Z,100962.34
2023-05-08T06:00:24.060Z,100965.87
2023-05-08T06:03:32.599Z,100976.25
2023-05-08T06:06:38.728Z,100963.38
2023-05-08T06:09:42.201Z,100964.34
2023-05-08T06:12:46.995Z,100963.25
2023-05-08T06:15:51.162Z,100962.75
2023-05-08T06:18:57.101Z,100962.09
2023-05-08T06:22:01.263Z,100964.16
2023-05-08T06:25:06.982Z,100963.13
2023-05-08T06:28:12.249Z,100965.50
2023-05-08T06:31:19.174Z,100966.63
2023-05-08T06:34:24.824Z,100971.00
2023-05-08T06:37:27.971Z,100974.53
2023-05-08T06:40:34.310Z,100975.63
2023-05-08T06:43:37.556Z,100970.53
2023-05-08T06:46:40.666Z,100973.75
2023-05-08T06:49:44.792Z,100967.84
2023-05-08T06:52:53.479Z,100976.84
2023-05-08T06:56:01.887Z,100981.69
2023-05-08T06:59:09.058Z,100982.75
2023-05-08T07:02:17.683Z,100990.50
2023-05-08T07:05:22.707Z,100992.09
2023-05-08T07:08:27.995Z,100990.03
2023-05-08T07:11:33.422Z,100991.62
2023-05-08T07:14:39.846Z,100989.78
2023-05-08T07:17:45.511Z,100982.37
2023-05-08T07:20:48.842Z,100979.72
2023-05-08T07:23:54.202Z,100987.34
2023-05-08T07:26:59.619Z,100984.84
2023-05-08T07:30:04.589Z,100981.34
2023-05-08T07:33:09.244Z,100981.53
2023-05-08T07:36:15.781Z,100978.28
2023-05-08T07:39:22.392Z,100987.72
2023-05-08T07:42:26.787Z,100987.66
2023-05-08T07:45:30.314Z,100987.78
2023-05-08T07:48:34.790Z,100990.47
2023-05-08T07:51:40.574Z,100990.41
2023-05-08T07:54:45.514Z,100995.16
2023-05-08T07:57:52.654Z,100994.78
2023-05-08T08:01:00.572Z,100998.41
2023-05-08T08:04:09.152Z,101000.09
2023-05-08T08:07:17.392Z,100986.94
2023-05-08T08:10:23.182Z,100989.41
2023-05-08T08:13:27.494Z,100994.28
2023-05-08T08:16:34.605Z,100994.50
2023-05-08T08:19:41.798Z,100985.94
2023-05-08T08:22:50.472Z,100986.81
2023-05-08T08:25:57.673Z,100989.91
2023-05-08T08:29:06.638Z,100989.25
2023-05-08T08:32:12.915Z,100978.25
2023-05-08T08:35:19.934Z,100985.34
2023-05-08T08:38:27.175Z,100991.34
2023-05-08T08:41:36.253Z,100985.75
2023-05-08T08:44:43.340Z,100980.88
2023-05-08T08:47:53.547Z,100988.03
2023-05-08T08:51:03.732Z,100984.50
2023-05-08T08:54:15.325Z,100981.88
2023-05-08T08:57:23.113Z,100981.06
2023-05-08T09:00:33.254Z,100987.88
2023-05-08T09:03:40.521Z,100974.56
2023-05-08T09:06:46.567Z,100975.50
2023-05-08T09:09:51.721Z,100965.59
2023-05-08T09:12:55.764Z,100965.75
2023-05-08T09:16:00.648Z,100967.19
2023-05-08T09:19:06.059Z,100963.91
2023-05-08T09:22:14.605Z,100974.56
2023-05-08T09:25:21.523Z,100967.31
2023-05-08T09:28:27.332Z,100966.44
2023-05-08T09:31:37.889Z,100964.16
2023-05-08T09:34:42.536Z,100967.72
2023-05-08T09:37:47.975Z,100969.28
2023-05-08T09:41:16.819Z,100962.94
2023-05-08T09:44:21.535Z,100961.22
2023-05-08T09:47:26.015Z,100954.19
2023-05-08T09:50:29.783Z,100954.34
2023-05-08T09:53:32.895Z,100963.00
2023-05-08T09:56:40.429Z,100962.47
2023-05-08T09:59:44.851Z,100963.81
2023-05-08T10:03:02.355Z,100955.50
2023-05-08T10:06:17.470Z,100949.50
2023-05-08T10:09:22.435Z,100945.87
2023-05-08T10:12:27.347Z,100942.88
2023-05-08T10:15:34.638Z,100942.78
2023-05-08T10:18:47.365Z,100941.00
2023-05-08T10:21:56.897Z,100934.53
2023-05-08T10:25:04.274Z,100935.13
2023-05-08T10:28:33.606Z,100922.97
2023-05-08T10:31:44.569Z,100928.81
2023-05-08T10:35:01.941Z,100927.47
2023-05-08T10:38:12.683Z,100928.97
2023-05-08T10:41:20.022Z,100933.47
2023-05-08T10:44:31.605Z,100917.81
2023-05-08T10:48:12.888Z,100912.56
2023-05-08T10:51:27.792Z,100907.34
2023-05-08T10:55:06.763Z,100916.91
2023-05-08T10:58:17.421Z,100904.75
2023-05-08T11:01:21.411Z,100897.31
2023-05-08T11:04:24.726Z,100908.97
2023-05-08T11:07:54.932Z,100903.12
2023-05-08T11:11:08.316Z,100893.16
2023-05-08T11:14:15.482Z,100902.09
2023-05-08T11:17:25.015Z,100891.97
2023-05-08T11:20:39.754Z,100887.19
2023-05-08T11:23:42.767Z,100889.78
2023-05-08T11:26:49.525Z,100887.44
2023-05-08T11:30:20.952Z,100887.56
2023-05-08T11:33:30.954Z,100884.59
2023-05-08T11:36:37.335Z,100889.62
2023-05-08T11:39:41.413Z,100880.44
2023-05-08T11:42:46.237Z,100875.38
2023-05-08T11:45:49.466Z,100882.66
2023-05-08T11:49:01.681Z,100880.56
2023-05-08T11:52:06.450Z,100874.91
2023-05-08T11:55:12.452Z,100884.13
2023-05-08T11:58:17.405Z,100890.31
2023-05-08T12:01:23.474Z,100873.09
2023-05-08T12:04:27.409Z,100876.84
2023-05-08T12:07:31.545Z,100878.66
2023-05-08T12:10:47.057Z,100873.12
2023-05-08T12:13:52.266Z,100871.94
2023-05-08T12:16:57.176Z,100864.37
2023-05-08T12:20:10.271Z,100873.19
2023-05-08T12:23:14.946Z,100873.25
2023-05-08T12:26:18.513Z,100871.78
2023-05-08T12:29:23.158Z,100874.88
2023-05-08T12:32:28.878Z,100871.06
2023-05-08T12:35:34.051Z,100867.31
2023-05-08T12:38:38.348Z,100867.13
2023-05-08T12:41:49.388Z,100882.53
2023-05-08T12:44:54.774Z,100874.72
2023-05-08T12:48:04.288Z,100870.03
2023-05-08T12:51:08.992Z,100880.78
2023-05-08T12:54:13.403Z,100878.63
2023-05-08T12:57:21.409Z,100878.91
2023-05-08T13:00:26.416Z,100877.31
2023-05-08T13:03:36.684Z,100881.44
2023-05-08T13:06:43.245Z,100879.00
2023-05-08T13:10:04.106Z,100874.84
2023-05-08T13:13:09.786Z,100874.97
2023-05-08T13:16:14.964Z,100881.72
2023-05-08T13:19:22.841Z,100879.22
2023-05-08T13:22:55.663Z,100876.91
2023-05-08T13:26:02.707Z,100889.78
2023-05-08T13:29:09.031Z,100882.34
2023-05-08T13:32:15.776Z,100882.81
2023-05-08T13:35:21.614Z,100889.03
2023-05-08T13:38:28.297Z,100891.28
2023-05-08T13:41:33.778Z,100893.06
2023-05-08T13:44:41.596Z,100887.00
2023-05-08T13:47:50.307Z,100881.81
2023-05-08T13:50:55.696Z,100880.47
2023-05-08T13:53:59.598Z,100894.69
2023-05-08T13:57:04.737Z,100887.06
2023-05-08T14:00:15.444Z,100881.25
2023-05-08T14:03:20.438Z,100879.81
2023-05-08T14:06:25.398Z,100881.37
2023-05-08T14:09:32.286Z,100873.72
2023-05-08T14:12:41.343Z,100884.03
2023-05-08T14:15:49.084Z,100886.97
2023-05-08T14:18:57.798Z,100879.88
2023-05-08T14:22:04.550Z,100884.19
2023-05-08T14:25:12.749Z,100879.22
2023-05-08T14:28:20.043Z,100875.09
2023-05-08T14:31:29.410Z,100887.75
2023-05-08T14:34:34.986Z,100885.84
2023-05-08T14:37:44.490Z,100897.56
2023-05-08T14:40:56.195Z,100898.19
2023-05-08T14:44:04.256Z,100899.53
2023-05-08T14:47:11.450Z,100892.09
2023-05-08T14:50:24.874Z,100897.16
2023-05-08T14:53:31.228Z,100900.47
2023-05-08T15:00:09.424Z,100899.44
2023-05-08T15:03:20.282Z,100898.91
2023-05-08T15:06:27.043Z,100903.56
2023-05-08T15:09:32.974Z,100894.72
2023-05-08T15:12:39.079Z,100902.03
2023-05-08T15:15:49.949Z,100900.72
2023-05-08T15:18:57.572Z,100888.88
2023-05-08T15:22:05.806Z,100898.44
2023-05-08T15:25:14.153Z,100895.78
2023-05-08T15:28:24.260Z,100898.25
2023-05-08T15:31:35.586Z,100888.41
2023-05-08T15:34:41.581Z,100893.03
